Antelope, Texas
Current Conditions -  °F | °C
As of 2:50 PM on Monday 24 Nov 2014 (Local Time) from KRPH Reporting Station
Clear Clear  
Wind Chill: 59°   Ceiling: Unl
Heat Index: 59°   Visibility: 10mi
Dew Point: 27°   Wind: 5mph
Humidity: 29%   Direction: 300°WNW
Pressure: 30.05"   Gusts: NA
Location:  33.4259°N, 98.383°W
Report Text: KRPH 242050Z AUTO 30004KT 10SM CLR 15/M03 A3005 RMK AO2 T01521026
Loading
Personal Weather Stations






























Interactive Weather Map New forecast layout! Learn more

10-Day Weather Forecast

Advertisements
Track Severe Weather on mobile